sensor_id;sensor_type;location;lat;lon;timestamp;pressure;altitude;pressure_sealevel;temperature;humidity
40285;BME280;25997;50.214;19.354;2023-05-11T00:01:50;97940.25;;;10.64;34.16
40285;BME280;25997;50.214;19.354;2023-05-11T00:04:53;97939.38;;;10.63;34.42
40285;BME280;25997;50.214;19.354;2023-05-11T00:07:55;97938.38;;;10.60;34.03
40285;BME280;25997;50.214;19.354;2023-05-11T00:10:58;97946.38;;;10.64;34.06
40285;BME280;25997;50.214;19.354;2023-05-11T00:14:01;97942.22;;;10.72;33.98
40285;BME280;25997;50.214;19.354;2023-05-11T00:17:05;97942.44;;;10.82;34.21
40285;BME280;25997;50.214;19.354;2023-05-11T00:20:08;97942.53;;;10.86;33.98
40285;BME280;25997;50.214;19.354;2023-05-11T00:23:11;97936.50;;;10.90;34.23
40285;BME280;25997;50.214;19.354;2023-05-11T00:26:13;97931.94;;;10.82;34.48
40285;BME280;25997;50.214;19.354;2023-05-11T00:29:18;97926.56;;;10.77;34.56
40285;BME280;25997;50.214;19.354;2023-05-11T00:32:22;97930.22;;;10.84;34.31
40285;BME280;25997;50.214;19.354;2023-05-11T00:35:24;97925.06;;;10.88;34.38
40285;BME280;25997;50.214;19.354;2023-05-11T00:38:27;97929.63;;;10.97;34.43
40285;BME280;25997;50.214;19.354;2023-05-11T00:41:29;97926.22;;;11.01;34.30
40285;BME280;25997;50.214;19.354;2023-05-11T00:44:32;97929.63;;;10.97;34.31
40285;BME280;25997;50.214;19.354;2023-05-11T00:47:36;97926.00;;;10.92;34.39
40285;BME280;25997;50.214;19.354;2023-05-11T00:50:38;97932.03;;;10.86;34.67
40285;BME280;25997;50.214;19.354;2023-05-11T00:53:41;97931.13;;;10.86;34.60
40285;BME280;25997;50.214;19.354;2023-05-11T00:56:44;97937.09;;;10.79;34.76
40285;BME280;25997;50.214;19.354;2023-05-11T00:59:46;97935.94;;;10.66;35.06
40285;BME280;25997;50.214;19.354;2023-05-11T01:02:51;97934.13;;;10.63;35.21
40285;BME280;25997;50.214;19.354;2023-05-11T01:06:02;97935.94;;;10.66;34.88
40285;BME280;25997;50.214;19.354;2023-05-11T01:09:12;97938.59;;;10.67;35.04
40285;BME280;25997;50.214;19.354;2023-05-11T01:12:26;97942.56;;;10.50;35.45
40285;BME280;25997;50.214;19.354;2023-05-11T01:15:38;97944.63;;;10.29;35.56
40285;BME280;25997;50.214;19.354;2023-05-11T01:18:51;97940.69;;;10.12;35.72
40285;BME280;25997;50.214;19.354;2023-05-11T01:21:56;97934.28;;;10.02;35.61
40285;BME280;25997;50.214;19.354;2023-05-11T01:25:11;97945.63;;;10.01;36.15
40285;BME280;25997;50.214;19.354;2023-05-11T01:28:28;97946.47;;;10.00;36.04
40285;BME280;25997;50.214;19.354;2023-05-11T01:31:45;97941.16;;;9.97;35.90
40285;BME280;25997;50.214;19.354;2023-05-11T01:34:55;97939.34;;;9.95;36.03
40285;BME280;25997;50.214;19.354;2023-05-11T01:38:03;97942.81;;;9.95;36.04
40285;BME280;25997;50.214;19.354;2023-05-11T01:41:11;97939.38;;;9.96;36.06
40285;BME280;25997;50.214;19.354;2023-05-11T01:44:18;97937.56;;;9.95;36.12
40285;BME280;25997;50.214;19.354;2023-05-11T01:47:22;97938.31;;;9.90;36.24
40285;BME280;25997;50.214;19.354;2023-05-11T01:50:26;97939.09;;;9.86;36.46
40285;BME280;25997;50.214;19.354;2023-05-11T01:53:31;97936.19;;;9.75;36.54
40285;BME280;25997;50.214;19.354;2023-05-11T01:56:34;97940.84;;;9.56;36.74
40285;BME280;25997;50.214;19.354;2023-05-11T01:59:39;97939.72;;;9.46;36.97
40285;BME280;25997;50.214;19.354;2023-05-11T02:02:43;97934.47;;;9.46;36.78
40285;BME280;25997;50.214;19.354;2023-05-11T02:05:48;97931.78;;;9.45;36.99
40285;BME280;25997;50.214;19.354;2023-05-11T02:08:53;97939.75;;;9.48;36.66
40285;BME280;25997;50.214;19.354;2023-05-11T02:11:58;97941.78;;;9.58;36.61
40285;BME280;25997;50.214;19.354;2023-05-11T02:15:02;97939.47;;;9.68;36.77
40285;BME280;25997;50.214;19.354;2023-05-11T02:18:11;97943.16;;;9.75;36.62
40285;BME280;25997;50.214;19.354;2023-05-11T02:21:15;97943.31;;;9.81;36.37
40285;BME280;25997;50.214;19.354;2023-05-11T02:24:18;97937.28;;;9.85;36.63
40285;BME280;25997;50.214;19.354;2023-05-11T02:27:22;97943.53;;;9.88;36.69
40285;BME280;25997;50.214;19.354;2023-05-11T02:30:26;97942.66;;;9.89;36.67
40285;BME280;25997;50.214;19.354;2023-05-11T02:33:34;97945.34;;;9.91;36.92
40285;BME280;25997;50.214;19.354;2023-05-11T02:36:37;97936.59;;;9.90;36.85
40285;BME280;25997;50.214;19.354;2023-05-11T02:39:43;97940.03;;;9.89;36.95
40285;BME280;25997;50.214;19.354;2023-05-11T02:42:49;97946.09;;;9.87;37.16
40285;BME280;25997;50.214;19.354;2023-05-11T02:45:59;97947.50;;;9.74;37.37
40285;BME280;25997;50.214;19.354;2023-05-11T02:49:07;97947.97;;;9.60;37.62
40285;BME280;25997;50.214;19.354;2023-05-11T02:52:10;97948.34;;;9.42;37.54
40285;BME280;25997;50.214;19.354;2023-05-11T02:55:19;97943.44;;;9.24;37.80
40285;BME280;25997;50.214;19.354;2023-05-11T02:58:23;97948.19;;;9.08;38.07
40285;BME280;25997;50.214;19.354;2023-05-11T03:01:35;97942.56;;;8.96;38.00
40285;BME280;25997;50.214;19.354;2023-05-11T03:04:39;97940.84;;;8.96;38.14
40285;BME280;25997;50.214;19.354;2023-05-11T03:07:41;97940.22;;;9.05;38.02
40285;BME280;25997;50.214;19.354;2023-05-11T03:10:45;97943.03;;;9.11;38.18
40285;BME280;25997;50.214;19.354;2023-05-11T03:13:48;97945.72;;;9.14;38.12
40285;BME280;25997;50.214;19.354;2023-05-11T03:16:52;97945.69;;;9.12;38.33
40285;BME280;25997;50.214;19.354;2023-05-11T03:19:57;97941.13;;;9.05;38.08
40285;BME280;25997;50.214;19.354;2023-05-11T03:23:04;97944.53;;;9.03;38.40
40285;BME280;25997;50.214;19.354;2023-05-11T03:26:07;97947.75;;;8.94;38.47
40285;BME280;25997;50.214;19.354;2023-05-11T03:29:14;97950.91;;;8.84;38.56
40285;BME280;25997;50.214;19.354;2023-05-11T03:32:18;97954.97;;;8.75;38.61
40285;BME280;25997;50.214;19.354;2023-05-11T03:35:24;97952.16;;;8.69;38.98
40285;BME280;25997;50.214;19.354;2023-05-11T03:38:30;97952.19;;;8.70;38.90
40285;BME280;25997;50.214;19.354;2023-05-11T03:41:35;97952.25;;;8.72;38.97
40285;BME280;25997;50.214;19.354;2023-05-11T03:44:41;97952.25;;;8.72;39.08
40285;BME280;25997;50.214;19.354;2023-05-11T03:47:45;97955.00;;;8.76;39.37
40285;BME280;25997;50.214;19.354;2023-05-11T03:50:51;97955.84;;;8.75;39.41
40285;BME280;25997;50.214;19.354;2023-05-11T03:53:53;97961.13;;;8.77;39.47
40285;BME280;25997;50.214;19.354;2023-05-11T03:56:56;97947.31;;;8.82;39.55
40285;BME280;25997;50.214;19.354;2023-05-11T03:59:58;97957.88;;;8.84;39.49
40285;BME280;25997;50.214;19.354;2023-05-11T04:03:03;97945.91;;;8.90;39.87
40285;BME280;25997;50.214;19.354;2023-05-11T04:06:07;97953.03;;;8.96;39.90
40285;BME280;25997;50.214;19.354;2023-05-11T04:09:10;97954.31;;;9.08;40.23
40285;BME280;25997;50.214;19.354;2023-05-11T04:12:13;97953.88;;;9.23;40.07
40285;BME280;25997;50.214;19.354;2023-05-11T04:15:16;97958.63;;;9.36;39.95
40285;BME280;25997;50.214;19.354;2023-05-11T04:18:18;97959.69;;;9.43;39.80
40285;BME280;25997;50.214;19.354;2023-05-11T04:21:22;97973.66;;;9.42;40.11
40285;BME280;25997;50.214;19.354;2023-05-11T04:24:25;97969.59;;;9.53;40.03
40285;BME280;25997;50.214;19.354;2023-05-11T04:27:27;97972.53;;;9.63;39.63
40285;BME280;25997;50.214;19.354;2023-05-11T04:30:30;97962.44;;;9.77;39.78
40285;BME280;25997;50.214;19.354;2023-05-11T04:33:32;97967.06;;;9.87;39.54
40285;BME280;25997;50.214;19.354;2023-05-11T04:36:36;97965.56;;;9.95;39.79
40285;BME280;25997;50.214;19.354;2023-05-11T04:39:39;97965.91;;;10.07;39.81
40285;BME280;25997;50.214;19.354;2023-05-11T04:42:41;97968.75;;;10.15;39.69
40285;BME280;25997;50.214;19.354;2023-05-11T04:45:49;97975.06;;;10.23;39.66
40285;BME280;25997;50.214;19.354;2023-05-11T04:48:57;97972.69;;;10.32;39.77
40285;BME280;25997;50.214;19.354;2023-05-11T04:52:02;97964.34;;;10.48;39.48
40285;BME280;25997;50.214;19.354;2023-05-11T04:55:06;97972.50;;;10.58;39.50
40285;BME280;25997;50.214;19.354;2023-05-11T04:58:08;97970.97;;;10.66;39.60
40285;BME280;25997;50.214;19.354;2023-05-11T05:01:11;97973.88;;;10.80;39.41
40285;BME280;25997;50.214;19.354;2023-05-11T05:04:13;97967.16;;;10.91;39.51
40285;BME280;25997;50.214;19.354;2023-05-11T05:07:17;97977.97;;;11.05;39.59
40285;BME280;25997;50.214;19.354;2023-05-11T05:10:20;97969.53;;;11.16;39.28
40285;BME280;25997;50.214;19.354;2023-05-11T05:13:24;97968.06;;;11.29;39.10
40285;BME280;25997;50.214;19.354;2023-05-11T05:16:27;97970.22;;;11.47;39.01
40285;BME280;25997;50.214;19.354;2023-05-11T05:19:29;97967.94;;;11.65;38.87
40285;BME280;25997;50.214;19.354;2023-05-11T05:22:33;97974.34;;;11.77;38.84
40285;BME280;25997;50.214;19.354;2023-05-11T05:25:36;97974.63;;;11.91;38.71
40285;BME280;25997;50.214;19.354;2023-05-11T05:28:40;97975.75;;;12.05;38.56
40285;BME280;25997;50.214;19.354;2023-05-11T05:31:44;97978.78;;;12.25;38.47
40285;BME280;25997;50.214;19.354;2023-05-11T05:34:47;97976.50;;;12.43;38.54
40285;BME280;25997;50.214;19.354;2023-05-11T05:37:51;97977.63;;;12.55;38.28
40285;BME280;25997;50.214;19.354;2023-05-11T05:40:54;97971.72;;;12.70;38.25
40285;BME280;25997;50.214;19.354;2023-05-11T05:43:56;97975.41;;;12.82;38.28
40285;BME280;25997;50.214;19.354;2023-05-11T05:46:59;97981.75;;;12.93;38.21
40285;BME280;25997;50.214;19.354;2023-05-11T05:50:06;97978.41;;;13.04;38.14
40285;BME280;25997;50.214;19.354;2023-05-11T05:53:11;97978.59;;;13.16;38.08
40285;BME280;25997;50.214;19.354;2023-05-11T05:56:13;97983.91;;;13.17;38.23
40285;BME280;25997;50.214;19.354;2023-05-11T05:59:16;97982.13;;;13.16;38.30
40285;BME280;25997;50.214;19.354;2023-05-11T06:02:19;97976.75;;;13.09;38.46
40285;BME280;25997;50.214;19.354;2023-05-11T06:05:22;97973.91;;;12.98;38.44
40285;BME280;25997;50.214;19.354;2023-05-11T06:08:27;97981.88;;;13.01;38.49
40285;BME280;25997;50.214;19.354;2023-05-11T06:11:29;97986.50;;;13.14;38.31
40285;BME280;25997;50.214;19.354;2023-05-11T06:14:33;97980.59;;;13.30;38.56
40285;BME280;25997;50.214;19.354;2023-05-11T06:17:36;97988.63;;;13.39;38.62
40285;BME280;25997;50.214;19.354;2023-05-11T06:20:39;97983.56;;;13.53;38.48
40285;BME280;25997;50.214;19.354;2023-05-11T06:23:43;97987.34;;;13.75;38.24
40285;BME280;25997;50.214;19.354;2023-05-11T06:26:45;97985.81;;;13.93;37.89
40285;BME280;25997;50.214;19.354;2023-05-11T06:29:50;97984.34;;;14.15;37.70
40285;BME280;25997;50.214;19.354;2023-05-11T06:32:53;97988.03;;;14.32;37.47
40285;BME280;25997;50.214;19.354;2023-05-11T06:35:56;97990.88;;;14.52;37.14
40285;BME280;25997;50.214;19.354;2023-05-11T06:39:02;97982.25;;;14.72;36.74
40285;BME280;25997;50.214;19.354;2023-05-11T06:42:07;97985.09;;;14.93;36.41
40285;BME280;25997;50.214;19.354;2023-05-11T06:45:10;97986.16;;;15.15;36.10
40285;BME280;25997;50.214;19.354;2023-05-11T06:48:15;97990.69;;;15.34;35.89
40285;BME280;25997;50.214;19.354;2023-05-11T06:51:18;97986.38;;;15.50;35.57
40285;BME280;25997;50.214;19.354;2023-05-11T06:54:23;97992.59;;;15.61;35.41
40285;BME280;25997;50.214;19.354;2023-05-11T06:57:26;97990.94;;;15.78;35.20
40285;BME280;25997;50.214;19.354;2023-05-11T07:00:28;97989.22;;;15.83;35.17
40285;BME280;25997;50.214;19.354;2023-05-11T07:03:30;97988.41;;;15.93;34.71
40285;BME280;25997;50.214;19.354;2023-05-11T07:06:33;97984.91;;;16.08;34.40
40285;BME280;25997;50.214;19.354;2023-05-11T07:09:37;97986.69;;;16.10;34.11
40285;BME280;25997;50.214;19.354;2023-05-11T07:12:39;97989.31;;;16.13;34.00
40285;BME280;25997;50.214;19.354;2023-05-11T07:15:42;97980.56;;;16.26;33.88
40285;BME280;25997;50.214;19.354;2023-05-11T07:18:44;97976.13;;;16.34;33.72
40285;BME280;25997;50.214;19.354;2023-05-11T07:21:46;97974.41;;;16.47;33.86
40285;BME280;25997;50.214;19.354;2023-05-11T07:24:50;97977.09;;;16.59;33.47
40285;BME280;25997;50.214;19.354;2023-05-11T07:27:53;97977.09;;;16.80;33.58
40285;BME280;25997;50.214;19.354;2023-05-11T07:30:55;97977.09;;;16.80;33.75
40285;BME280;25997;50.214;19.354;2023-05-11T07:33:58;97985.97;;;16.84;33.38
40285;BME280;25997;50.214;19.354;2023-05-11T07:37:00;97979.78;;;16.86;33.38
40285;BME280;25997;50.214;19.354;2023-05-11T07:40:05;97977.09;;;17.07;33.09
40285;BME280;25997;50.214;19.354;2023-05-11T07:43:08;97987.72;;;17.16;33.16
40285;BME280;25997;50.214;19.354;2023-05-11T07:46:10;97985.06;;;17.27;32.91
40285;BME280;25997;50.214;19.354;2023-05-11T07:49:13;97985.03;;;17.48;33.16
40285;BME280;25997;50.214;19.354;2023-05-11T07:52:15;97979.69;;;17.62;32.81
40285;BME280;25997;50.214;19.354;2023-05-11T07:55:19;97977.00;;;17.72;32.11
40285;BME280;25997;50.214;19.354;2023-05-11T07:58:24;97985.84;;;17.70;32.22
40285;BME280;25997;50.214;19.354;2023-05-11T08:01:27;97976.06;;;17.78;32.21
40285;BME280;25997;50.214;19.354;2023-05-11T08:04:29;97971.66;;;17.78;31.63
40285;BME280;25997;50.214;19.354;2023-05-11T08:07:32;97976.03;;;17.91;32.01
40285;BME280;25997;50.214;19.354;2023-05-11T08:10:36;97976.03;;;18.01;32.02
40285;BME280;25997;50.214;19.354;2023-05-11T08:13:38;97973.31;;;18.14;31.55
40285;BME280;25997;50.214;19.354;2023-05-11T08:16:41;97972.25;;;18.42;31.56
40285;BME280;25997;50.214;19.354;2023-05-11T08:19:43;97978.41;;;18.50;31.41
40285;BME280;25997;50.214;19.354;2023-05-11T08:22:46;97975.69;;;18.59;31.23
40285;BME280;25997;50.214;19.354;2023-05-11T08:25:51;97970.34;;;18.62;31.21
40285;BME280;25997;50.214;19.354;2023-05-11T08:28:54;97971.25;;;18.66;30.83
40285;BME280;25997;50.214;19.354;2023-05-11T08:31:56;97969.41;;;18.74;30.43
40285;BME280;25997;50.214;19.354;2023-05-11T08:34:59;97967.50;;;18.90;30.05
40285;BME280;25997;50.214;19.354;2023-05-11T08:38:02;97973.69;;;18.93;29.06
40285;BME280;25997;50.214;19.354;2023-05-11T08:41:06;97962.91;;;19.07;28.59
40285;BME280;25997;50.214;19.354;2023-05-11T08:44:09;97971.06;;;18.90;28.38
40285;BME280;25997;50.214;19.354;2023-05-11T08:47:12;97965.53;;;19.13;28.42
40285;BME280;25997;50.214;19.354;2023-05-11T08:50:15;97968.94;;;19.28;28.11
40285;BME280;25997;50.214;19.354;2023-05-11T08:53:18;97963.53;;;19.36;27.27
40285;BME280;25997;50.214;19.354;2023-05-11T08:56:24;97969.75;;;19.40;26.67
40285;BME280;25997;50.214;19.354;2023-05-11T08:59:28;97962.41;;;19.58;27.25
40285;BME280;25997;50.214;19.354;2023-05-11T09:02:31;97959.56;;;19.75;27.15
40285;BME280;25997;50.214;19.354;2023-05-11T09:05:34;97964.81;;;19.81;26.27
40285;BME280;25997;50.214;19.354;2023-05-11T09:08:38;97969.19;;;19.88;26.58
40285;BME280;25997;50.214;19.354;2023-05-11T09:11:43;97957.47;;;20.02;26.44
40285;BME280;25997;50.214;19.354;2023-05-11T09:14:46;97959.06;;;20.16;25.62
40285;BME280;25997;50.214;19.354;2023-05-11T09:17:48;97958.88;;;20.29;26.09
40285;BME280;25997;50.214;19.354;2023-05-11T09:20:51;97964.81;;;20.51;25.68
40285;BME280;25997;50.214;19.354;2023-05-11T09:23:54;97964.81;;;20.49;25.59
40285;BME280;25997;50.214;19.354;2023-05-11T09:27:07;97959.25;;;20.64;25.41
40285;BME280;25997;50.214;19.354;2023-05-11T09:30:11;97960.31;;;20.54;25.50
40285;BME280;25997;50.214;19.354;2023-05-11T09:33:20;97956.78;;;20.52;23.21
40285;BME280;25997;50.214;19.354;2023-05-11T09:36:23;97954.91;;;20.59;25.58
40285;BME280;25997;50.214;19.354;2023-05-11T09:39:29;97958.13;;;20.81;24.83
40285;BME280;25997;50.214;19.354;2023-05-11T09:42:35;97961.00;;;21.20;25.23
40285;BME280;25997;50.214;19.354;2023-05-11T09:45:39;97957.41;;;21.73;24.99
40285;BME280;25997;50.214;19.354;2023-05-11T09:48:41;97952.13;;;22.13;24.76
40285;BME280;25997;50.214;19.354;2023-05-11T09:51:44;97950.00;;;22.68;24.85
40285;BME280;25997;50.214;19.354;2023-05-11T09:54:48;97947.72;;;22.88;23.41
40285;BME280;25997;50.214;19.354;2023-05-11T09:57:57;97944.66;;;23.04;22.03
40285;BME280;25997;50.214;19.354;2023-05-11T10:00:59;97951.81;;;23.38;23.31
40285;BME280;25997;50.214;19.354;2023-05-11T10:04:03;97941.16;;;23.68;22.61
40285;BME280;25997;50.214;19.354;2023-05-11T10:07:08;97942.50;;;23.51;22.33
40285;BME280;25997;50.214;19.354;2023-05-11T10:10:11;97947.78;;;23.88;22.62
40285;BME280;25997;50.214;19.354;2023-05-11T10:13:16;97918.31;;;24.16;19.96
40285;BME280;25997;50.214;19.354;2023-05-11T10:16:19;97939.72;;;24.48;22.35
40285;BME280;25997;50.214;19.354;2023-05-11T10:19:22;97943.03;;;24.84;22.47
40285;BME280;25997;50.214;19.354;2023-05-11T10:22:25;97939.28;;;25.16;22.79
40285;BME280;25997;50.214;19.354;2023-05-11T10:25:28;97935.44;;;25.24;22.52
40285;BME280;25997;50.214;19.354;2023-05-11T10:28:32;97938.13;;;25.24;22.59
40285;BME280;25997;50.214;19.354;2023-05-11T10:31:36;97941.97;;;25.68;22.89
40285;BME280;25997;50.214;19.354;2023-05-11T10:34:40;97931.41;;;25.87;21.89
40285;BME280;25997;50.214;19.354;2023-05-11T10:37:44;97934.97;;;25.87;21.78
40285;BME280;25997;50.214;19.354;2023-05-11T10:40:47;97926.38;;;25.78;22.32
40285;BME280;25997;50.214;19.354;2023-05-11T10:44:08;97931.28;;;25.90;21.48
40285;BME280;25997;50.214;19.354;2023-05-11T10:47:31;97928.75;;;26.10;20.90
40285;BME280;25997;50.214;19.354;2023-05-11T10:50:56;97931.38;;;26.34;19.30
40285;BME280;25997;50.214;19.354;2023-05-11T10:54:11;97928.25;;;26.45;19.55
40285;BME280;25997;50.214;19.354;2023-05-11T10:57:32;97917.00;;;26.35;20.53
40285;BME280;25997;50.214;19.354;2023-05-11T11:04:44;97916.03;;;26.60;20.53
40285;BME280;25997;50.214;19.354;2023-05-11T11:07:57;97923.06;;;26.85;21.12
40285;BME280;25997;50.214;19.354;2023-05-11T11:11:00;97910.09;;;26.95;21.71
40285;BME280;25997;50.214;19.354;2023-05-11T11:14:02;97917.28;;;26.94;21.50
40285;BME280;25997;50.214;19.354;2023-05-11T11:17:22;97919.47;;;27.28;18.10
40285;BME280;25997;50.214;19.354;2023-05-11T11:20:45;97918.31;;;27.54;18.80
40285;BME280;25997;50.214;19.354;2023-05-11T11:23:49;97913.94;;;27.92;20.95
40285;BME280;25997;50.214;19.354;2023-05-11T11:26:51;97916.00;;;27.87;20.50
40285;BME280;25997;50.214;19.354;2023-05-11T11:30:16;97908.00;;;27.83;18.89
40285;BME280;25997;50.214;19.354;2023-05-11T11:33:32;97913.59;;;27.59;19.94
40285;BME280;25997;50.214;19.354;2023-05-11T11:37:01;97915.88;;;27.28;19.45
40285;BME280;25997;50.214;19.354;2023-05-11T11:40:06;97917.50;;;27.52;21.17
40285;BME280;25997;50.214;19.354;2023-05-11T11:43:09;97906.50;;;27.36;20.43
40285;BME280;25997;50.214;19.354;2023-05-11T11:46:25;97904.97;;;27.51;20.63
40285;BME280;25997;50.214;19.354;2023-05-11T11:49:28;97909.22;;;27.76;20.82
40285;BME280;25997;50.214;19.354;2023-05-11T11:52:35;97906.72;;;28.31;19.92
40285;BME280;25997;50.214;19.354;2023-05-11T11:55:47;97902.94;;;28.35;17.99
40285;BME280;25997;50.214;19.354;2023-05-11T11:58:57;97897.97;;;28.44;18.18
40285;BME280;25997;50.214;19.354;2023-05-11T12:02:00;97903.06;;;28.50;19.74
40285;BME280;25997;50.214;19.354;2023-05-11T12:05:09;97903.34;;;28.82;18.21
40285;BME280;25997;50.214;19.354;2023-05-11T12:08:15;97903.94;;;29.24;19.41
40285;BME280;25997;50.214;19.354;2023-05-11T12:11:20;97895.78;;;29.58;19.65
40285;BME280;25997;50.214;19.354;2023-05-11T12:14:24;97901.69;;;29.32;19.34
40285;BME280;25997;50.214;19.354;2023-05-11T12:17:27;97889.81;;;29.52;18.94
40285;BME280;25997;50.214;19.354;2023-05-11T12:20:32;97898.56;;;29.74;18.71
40285;BME280;25997;50.214;19.354;2023-05-11T12:23:36;97892.84;;;29.46;18.76
40285;BME280;25997;50.214;19.354;2023-05-11T12:26:39;97896.13;;;29.52;19.31
40285;BME280;25997;50.214;19.354;2023-05-11T12:29:41;97872.47;;;30.06;18.48
40285;BME280;25997;50.214;19.354;2023-05-11T12:32:45;97890.88;;;30.32;18.42
40285;BME280;25997;50.214;19.354;2023-05-11T12:35:51;97891.69;;;30.49;17.81
40285;BME280;25997;50.214;19.354;2023-05-11T12:38:55;97883.56;;;30.81;18.18
40285;BME280;25997;50.214;19.354;2023-05-11T12:41:58;97884.53;;;30.00;17.59
40285;BME280;25997;50.214;19.354;2023-05-11T12:45:01;97880.03;;;28.79;18.03
40285;BME280;25997;50.214;19.354;2023-05-11T12:48:04;97870.06;;;27.06;18.89
40285;BME280;25997;50.214;19.354;2023-05-11T12:51:07;97840.69;;;26.78;19.04
40285;BME280;25997;50.214;19.354;2023-05-11T12:54:11;97863.69;;;26.87;19.23
40285;BME280;25997;50.214;19.354;2023-05-11T12:57:22;97856.81;;;28.01;18.59
40285;BME280;25997;50.214;19.354;2023-05-11T13:00:24;97865.00;;;28.55;18.59
40285;BME280;25997;50.214;19.354;2023-05-11T13:03:28;97851.88;;;28.83;18.67
40285;BME280;25997;50.214;19.354;2023-05-11T13:06:31;97843.97;;;28.06;18.45
40285;BME280;25997;50.214;19.354;2023-05-11T13:09:35;97848.66;;;26.81;18.74
40285;BME280;25997;50.214;19.354;2023-05-11T13:12:47;97835.56;;;25.83;18.95
40285;BME280;25997;50.214;19.354;2023-05-11T13:15:50;97828.41;;;26.50;19.47
40285;BME280;25997;50.214;19.354;2023-05-11T13:18:56;97833.78;;;26.06;18.98
40285;BME280;25997;50.214;19.354;2023-05-11T13:21:58;97836.28;;;25.64;19.88
40285;BME280;25997;50.214;19.354;2023-05-11T13:25:03;97838.00;;;25.41;20.05
40285;BME280;25997;50.214;19.354;2023-05-11T13:28:06;97831.13;;;26.05;20.03
40285;BME280;25997;50.214;19.354;2023-05-11T13:31:09;97832.94;;;27.12;19.72
40285;BME280;25997;50.214;19.354;2023-05-11T13:34:11;97832.72;;;27.96;19.07
40285;BME280;25997;50.214;19.354;2023-05-11T13:37:14;97832.97;;;27.51;18.83
40285;BME280;25997;50.214;19.354;2023-05-11T13:40:18;97821.66;;;26.18;19.27
40285;BME280;25997;50.214;19.354;2023-05-11T13:43:20;97819.16;;;25.18;19.96
40285;BME280;25997;50.214;19.354;2023-05-11T13:46:23;97815.13;;;24.80;20.04
40285;BME280;25997;50.214;19.354;2023-05-11T13:49:25;97818.28;;;24.11;20.37
40285;BME280;25997;50.214;19.354;2023-05-11T13:52:28;97812.03;;;25.17;20.59
40285;BME280;25997;50.214;19.354;2023-05-11T13:55:32;97814.38;;;26.41;19.83
40285;BME280;25997;50.214;19.354;2023-05-11T13:58:38;97815.41;;;27.23;19.46
40285;BME280;25997;50.214;19.354;2023-05-11T14:01:40;97812.50;;;28.05;19.54
40285;BME280;25997;50.214;19.354;2023-05-11T14:04:43;97821.25;;;28.47;18.64
40285;BME280;25997;50.214;19.354;2023-05-11T14:07:46;97811.38;;;28.65;18.64
40285;BME280;25997;50.214;19.354;2023-05-11T14:10:49;97817.81;;;29.15;18.35
40285;BME280;25997;50.214;19.354;2023-05-11T14:13:52;97816.09;;;28.78;17.55
40285;BME280;25997;50.214;19.354;2023-05-11T14:16:54;97809.94;;;28.39;17.75
40285;BME280;25997;50.214;19.354;2023-05-11T14:19:57;97815.22;;;28.23;17.65
40285;BME280;25997;50.214;19.354;2023-05-11T14:23:00;97804.34;;;28.61;17.84
40285;BME280;25997;50.214;19.354;2023-05-11T14:26:04;97807.69;;;28.84;17.63
40285;BME280;25997;50.214;19.354;2023-05-11T14:29:06;97800.00;;;28.22;17.78
40285;BME280;25997;50.214;19.354;2023-05-11T14:32:09;97806.03;;;28.27;18.08
40285;BME280;25997;50.214;19.354;2023-05-11T14:35:11;97800.59;;;28.82;17.65
40285;BME280;25997;50.214;19.354;2023-05-11T14:38:14;97795.41;;;28.41;17.26
40285;BME280;25997;50.214;19.354;2023-05-11T14:41:18;97800.66;;;28.07;17.95
40285;BME280;25997;50.214;19.354;2023-05-11T14:44:21;97798.94;;;28.06;17.40
40285;BME280;25997;50.214;19.354;2023-05-11T14:47:23;97786.44;;;27.85;17.75
40285;BME280;25997;50.214;19.354;2023-05-11T14:50:27;97782.59;;;27.52;17.54
40285;BME280;25997;50.214;19.354;2023-05-11T14:53:30;97790.88;;;27.29;17.88
40285;BME280;25997;50.214;19.354;2023-05-11T14:56:34;97796.16;;;27.50;18.12
40285;BME280;25997;50.214;19.354;2023-05-11T14:59:36;97784.56;;;27.68;18.10
40285;BME280;25997;50.214;19.354;2023-05-11T15:02:39;97788.06;;;27.70;18.03
40285;BME280;25997;50.214;19.354;2023-05-11T15:05:41;97790.38;;;27.78;18.11
40285;BME280;25997;50.214;19.354;2023-05-11T15:08:46;97769.41;;;27.05;17.91
40285;BME280;25997;50.214;19.354;2023-05-11T15:11:50;97787.19;;;27.11;18.18
40285;BME280;25997;50.214;19.354;2023-05-11T15:14:53;97793.34;;;27.53;18.18
40285;BME280;25997;50.214;19.354;2023-05-11T15:17:55;97795.22;;;27.90;17.95
40285;BME280;25997;50.214;19.354;2023-05-11T15:20:57;97802.69;;;28.22;17.93
40285;BME280;25997;50.214;19.354;2023-05-11T15:24:01;97804.34;;;28.61;17.55
40285;BME280;25997;50.214;19.354;2023-05-11T15:27:05;97791.28;;;28.51;17.61
40285;BME280;25997;50.214;19.354;2023-05-11T15:30:09;97788.75;;;28.48;17.75
40285;BME280;25997;50.214;19.354;2023-05-11T15:33:11;97790.22;;;28.55;17.90
40285;BME280;25997;50.214;19.354;2023-05-11T15:36:15;97783.63;;;28.42;17.94
40285;BME280;25997;50.214;19.354;2023-05-11T15:39:17;97786.00;;;28.31;17.72
40285;BME280;25997;50.214;19.354;2023-05-11T15:42:21;97799.47;;;28.14;17.99
40285;BME280;25997;50.214;19.354;2023-05-11T15:45:24;97797.13;;;28.07;18.04
40285;BME280;25997;50.214;19.354;2023-05-11T15:48:27;97796.84;;;28.13;17.47
40285;BME280;25997;50.214;19.354;2023-05-11T15:51:29;97798.31;;;27.62;17.78
40285;BME280;25997;50.214;19.354;2023-05-11T15:54:31;97790.22;;;26.40;18.22
40285;BME280;25997;50.214;19.354;2023-05-11T15:57:36;97791.28;;;25.68;18.25
40285;BME280;25997;50.214;19.354;2023-05-11T16:00:38;97796.13;;;25.35;18.80
40285;BME280;25997;50.214;19.354;2023-05-11T16:03:41;97787.97;;;25.61;18.87
40285;BME280;25997;50.214;19.354;2023-05-11T16:06:43;97800.66;;;26.04;18.90
40285;BME280;25997;50.214;19.354;2023-05-11T16:09:46;97791.47;;;25.87;18.49
40285;BME280;25997;50.214;19.354;2023-05-11T16:12:50;97790.03;;;25.30;18.56